This is the latest recevied weather packets stored in our database for station/object SQ7KHZ-10. If no packets are shown the sender has not sent any weather packets the latest 10 day(s).
| Time | Temp. | Humidity | Pressure | Rain* | Wind** | Luminosity | Snow |
|---|---|---|---|---|---|---|---|
| 1777785267 | 10.56° C | 76% | 1018.8 hPa | 0 mm | - | - | - |
| 1777784064 | 9.44° C | 79% | 1018.9 hPa | 0 mm | - | - | - |
| 1777782860 | 8.33° C | 84% | 1018.9 hPa | 0 mm | - | - | - |
| 1777781660 | 7.78° C | 84% | 1018.8 hPa | 0 mm | - | - | - |
| 1777780460 | 6.67° C | 85% | 1018.8 hPa | 0 mm | - | - | - |
| 1777779260 | 6.11° C | 87% | 1018.8 hPa | 0 mm | - | - | - |
| 1777778048 | 6.67° C | 86% | 1018.9 hPa | 0 mm | - | - | - |
| 1777776848 | 6.67° C | 83% | 1018.9 hPa | 0 mm | - | - | - |
| 1777775636 | 6.67° C | 85% | 1018.9 hPa | 0 mm | - | - | - |
| 1777774424 | 7.22° C | 84% | 1018.9 hPa | 0 mm | - | - | - |
| 1777773224 | 6.67° C | 84% | 1018.9 hPa | 0 mm | - | - | - |
| 1777772012 | 6.67° C | 86% | 1019 hPa | 0 mm | - | - | - |
| 1777770800 | 6.67° C | 87% | 1018.9 hPa | 0 mm | - | - | - |
| 1777769588 | 6.67° C | 87% | 1018.9 hPa | 0 mm | - | - | - |
| 1777768376 | 7.22° C | 87% | 1019.1 hPa | 0 mm | - | - | - |
| 1777767176 | 8.33° C | 81% | 1019 hPa | 0 mm | - | - | - |
| 1777765975 | 8.33° C | 82% | 1019 hPa | 0 mm | - | - | - |
| 1777764775 | 8.33° C | 81% | 1019.2 hPa | 0 mm | - | - | - |
| 1777763563 | 8.33° C | 81% | 1019.2 hPa | 0 mm | - | - | - |
| 1777762363 | 8.89° C | 80% | 1019.3 hPa | 0 mm | - | - | - |
| 1777761159 | 8.89° C | 80% | 1019.5 hPa | 0 mm | - | - | - |
| 1777759958 | 9.44° C | 80% | 1019.6 hPa | 0 mm | - | - | - |
| 1777758758 | 9.44° C | 79% | 1019.6 hPa | 0 mm | - | - | - |
| 1777757557 | 10.56° C | 75% | 1019.7 hPa | 0 mm | - | - | - |
| 1777756357 | 11.67° C | 72% | 1019.7 hPa | 0 mm | - | - | - |
* Rain latest hour (hover to see other rain measurements)
** Current wind speed in m/s (hover to see current wind gust speed)